createdAt,value
2018-07-16T00:00:53.103Z,96.84
2018-07-16T00:01:52.710Z,96.84
2018-07-16T00:02:52.834Z,96.94
2018-07-16T00:04:53.072Z,96.56
2018-07-16T00:05:52.638Z,96.56
2018-07-16T00:06:52.617Z,96.18
2018-07-16T00:07:52.908Z,96.27
2018-07-16T00:08:52.735Z,96.66
2018-07-16T00:09:52.570Z,96.37
2018-07-16T00:10:52.714Z,96.56
2018-07-16T00:11:52.535Z,96.56
2018-07-16T00:12:52.855Z,96.37
2018-07-16T00:13:52.513Z,96.47
2018-07-16T00:14:52.844Z,96.84
2018-07-16T00:15:52.478Z,97.13
2018-07-16T00:16:52.461Z,98.47
2018-07-16T00:19:52.471Z,97.52
2018-07-16T00:21:52.693Z,98.09
2018-07-16T00:22:52.378Z,97.99
2018-07-16T00:23:52.363Z,98.38
2018-07-16T00:24:52.347Z,97.33
2018-07-16T00:26:52.312Z,97.33
2018-07-16T00:27:52.347Z,97.52
2018-07-16T00:29:52.565Z,97.33
2018-07-16T00:30:52.249Z,97.04
2018-07-16T00:31:52.233Z,97.33
2018-07-16T00:33:52.257Z,97.04
2018-07-16T00:39:52.461Z,96.47
2018-07-16T00:40:52.102Z,96.47
2018-07-16T00:41:52.078Z,96.37
2018-07-16T00:42:52.066Z,96.47
2018-07-16T00:43:52.075Z,96.66
2018-07-16T00:44:52.036Z,96.42
2018-07-16T00:48:52.124Z,95.75
2018-07-16T00:49:51.958Z,95.46
2018-07-16T00:50:52.040Z,95.65
2018-07-16T00:51:52.604Z,94.98
2018-07-16T00:52:51.908Z,95.17
2018-07-16T00:54:51.877Z,95.27
2018-07-16T00:55:51.881Z,94.60
2018-07-16T00:56:52.151Z,94.31
2018-07-16T00:57:52.138Z,93.84
2018-07-16T00:59:51.874Z,93.55
2018-07-16T01:00:51.786Z,93.26
2018-07-16T01:01:51.792Z,93.07
2018-07-16T01:03:52.577Z,91.88
2018-07-16T01:04:51.724Z,91.40
2018-07-16T01:05:51.760Z,91.40
2018-07-16T01:06:51.699Z,90.83
2018-07-16T01:07:51.682Z,90.16
2018-07-16T01:08:51.674Z,90.35
2018-07-16T01:10:51.940Z,90.16
2018-07-16T01:12:51.648Z,90.54
2018-07-16T01:13:51.585Z,90.54
2018-07-16T01:14:51.566Z,90.64
2018-07-16T01:15:51.685Z,90.83
2018-07-16T01:16:51.548Z,91.02
2018-07-16T01:18:51.858Z,91.21
2018-07-16T01:19:51.491Z,91.40
2018-07-16T01:20:51.474Z,91.97
2018-07-16T01:21:51.459Z,92.02
2018-07-16T01:22:51.448Z,92.07
2018-07-16T01:23:51.434Z,92.07
2018-07-16T01:24:51.465Z,92.07
2018-07-16T01:26:51.688Z,92.26
2018-07-16T01:27:51.368Z,92.45
2018-07-16T01:28:51.345Z,92.93
2018-07-16T01:29:51.341Z,92.55
2018-07-16T01:30:51.362Z,93.50
2018-07-16T01:31:51.297Z,93.45
2018-07-16T01:32:51.285Z,93.41
2018-07-16T01:33:51.670Z,93.60
2018-07-16T01:36:51.311Z,92.93
2018-07-16T01:38:51.184Z,92.64
2018-07-16T01:39:51.175Z,92.74
2018-07-16T01:40:51.514Z,92.83
2018-07-16T01:41:51.141Z,92.36
2018-07-16T01:45:51.077Z,91.21
2018-07-16T01:47:51.178Z,90.97
2018-07-16T01:48:51.129Z,89.73
2018-07-16T01:49:51.019Z,88.78
2018-07-16T01:50:51.052Z,88.78
2018-07-16T01:51:50.978Z,88.30
2018-07-16T01:52:51.272Z,87.15
2018-07-16T01:54:50.979Z,87.06
2018-07-16T01:55:50.930Z,86.87
2018-07-16T01:56:50.980Z,87.06
2018-07-16T01:57:50.908Z,87.15
2018-07-16T01:58:51.175Z,87.35
2018-07-16T01:59:50.853Z,87.44
2018-07-16T02:00:50.956Z,88.01
2018-07-16T02:01:50.921Z,88.11
2018-07-16T02:02:50.857Z,87.54
2018-07-16T02:03:50.834Z,87.06
2018-07-16T02:04:51.685Z,87.25
2018-07-16T02:05:50.859Z,86.77
2018-07-16T02:06:50.825Z,87.73
2018-07-16T02:07:50.741Z,87.44
2018-07-16T02:08:50.773Z,88.01
2018-07-16T02:09:50.773Z,88.49
2018-07-16T02:10:50.978Z,88.59
2018-07-16T02:11:50.667Z,88.11
2018-07-16T02:12:50.768Z,87.92
2018-07-16T02:13:50.626Z,88.40
2018-07-16T02:14:50.721Z,88.68
2018-07-16T02:15:50.643Z,88.30
2018-07-16T02:16:50.878Z,88.49
2018-07-16T02:17:50.701Z,89.06
2018-07-16T02:18:50.559Z,88.87
2018-07-16T02:19:50.527Z,89.64
2018-07-16T02:20:50.665Z,90.59
2018-07-16T02:21:50.495Z,90.50
2018-07-16T02:22:50.823Z,90.78
2018-07-16T02:23:50.476Z,90.97
2018-07-16T02:24:50.515Z,91.74
2018-07-16T02:25:50.485Z,91.93
2018-07-16T02:26:50.462Z,91.74
2018-07-16T02:27:50.403Z,91.74
2018-07-16T02:28:50.381Z,90.78
2018-07-16T02:29:50.830Z,91.16
2018-07-16T02:30:50.347Z,91.07
2018-07-16T02:32:50.506Z,90.97
2018-07-16T02:33:50.301Z,90.88
2018-07-16T02:34:50.402Z,90.59
2018-07-16T02:35:50.282Z,90.50
2018-07-16T02:37:50.539Z,90.69
2018-07-16T02:38:50.268Z,90.69
2018-07-16T02:39:50.207Z,90.97
2018-07-16T02:40:50.189Z,90.78
2018-07-16T02:41:50.221Z,90.40
2018-07-16T02:42:50.152Z,90.21
2018-07-16T02:47:50.435Z,89.35
2018-07-16T02:48:50.718Z,89.83
2018-07-16T02:50:50.022Z,91.07
2018-07-16T02:52:49.994Z,91.64
2018-07-16T02:53:50.024Z,90.78
2018-07-16T02:54:50.257Z,90.55
2018-07-16T02:55:49.950Z,89.92
2018-07-16T02:56:50.491Z,89.35
2018-07-16T02:57:50.606Z,89.40
2018-07-16T02:58:49.890Z,89.21
2018-07-16T02:59:50.037Z,88.73
2018-07-16T03:00:49.854Z,87.87
2018-07-16T03:01:50.145Z,87.02
2018-07-16T03:02:49.982Z,87.21
2018-07-16T03:03:49.859Z,86.82
2018-07-16T03:05:49.827Z,86.25
2018-07-16T03:10:49.993Z,85.97
2018-07-16T03:11:49.732Z,86.06
2018-07-16T03:12:49.663Z,86.54
2018-07-16T03:13:49.642Z,86.06
2018-07-16T03:14:49.629Z,85.68
2018-07-16T03:15:49.615Z,85.49
2018-07-16T03:16:49.968Z,85.58
2018-07-16T03:17:49.625Z,85.87
2018-07-16T03:18:49.614Z,86.44
2018-07-16T03:19:49.592Z,86.54
2018-07-16T03:20:49.535Z,86.06
2018-07-16T03:21:49.530Z,86.44
2018-07-16T03:22:49.917Z,86.35
2018-07-16T03:23:49.538Z,86.06
2018-07-16T03:24:49.459Z,86.63
2018-07-16T03:25:49.451Z,86.06
2018-07-16T03:26:49.426Z,85.87
2018-07-16T03:27:49.430Z,85.77
2018-07-16T03:28:49.712Z,86.35
2018-07-16T03:29:49.430Z,86.25
2018-07-16T03:30:49.361Z,87.35
2018-07-16T03:31:49.343Z,87.92
2018-07-16T03:32:49.327Z,87.87
2018-07-16T03:33:49.315Z,87.87
2018-07-16T03:34:49.604Z,87.82
2018-07-16T03:35:49.336Z,88.01
2018-07-16T03:36:49.262Z,89.21
2018-07-16T03:37:49.249Z,89.59
2018-07-16T03:38:49.234Z,89.50
2018-07-16T03:39:49.230Z,89.59
2018-07-16T03:41:49.574Z,89.40
2018-07-16T03:42:49.184Z,88.64
2018-07-16T03:43:49.148Z,88.83
2018-07-16T03:44:49.133Z,88.97
2018-07-16T03:45:49.280Z,88.64
2018-07-16T03:46:49.098Z,89.69
2018-07-16T03:47:49.399Z,89.40
2018-07-16T03:48:49.062Z,89.02
2018-07-16T03:50:49.027Z,88.83
2018-07-16T03:52:52.034Z,88.97
2018-07-16T03:54:49.263Z,88.16
2018-07-16T03:55:48.991Z,87.87
2018-07-16T03:56:48.935Z,88.16
2018-07-16T03:57:48.919Z,88.64
2018-07-16T03:59:48.934Z,87.49
2018-07-16T04:00:48.986Z,87.49
2018-07-16T04:01:49.259Z,87.59
2018-07-16T04:02:48.858Z,87.49
2018-07-16T04:03:48.868Z,86.92
2018-07-16T04:05:48.945Z,86.54
2018-07-16T04:06:48.778Z,86.06
2018-07-16T04:07:48.761Z,85.39
2018-07-16T04:08:48.748Z,85.68
2018-07-16T04:09:48.720Z,85.39
2018-07-16T04:11:48.747Z,84.92
2018-07-16T04:12:48.665Z,85.11
2018-07-16T04:13:48.728Z,85.30
2018-07-16T04:14:48.946Z,85.11
2018-07-16T04:17:48.645Z,84.63
2018-07-16T04:18:48.623Z,84.58
2018-07-16T04:19:48.716Z,84.63
2018-07-16T04:21:48.874Z,84.39
2018-07-16T04:22:48.602Z,84.58
2018-07-16T04:23:48.542Z,84.58
2018-07-16T04:24:48.506Z,84.39
2018-07-16T04:25:48.463Z,84.86
2018-07-16T04:26:48.539Z,84.29
2018-07-16T04:27:48.461Z,84.10
2018-07-16T04:28:48.704Z,83.72
2018-07-16T04:29:48.441Z,83.24
2018-07-16T04:30:48.381Z,83.14
2018-07-16T04:31:48.627Z,82.67
2018-07-16T04:32:48.349Z,82.19
2018-07-16T04:34:48.623Z,80.85
2018-07-16T04:35:48.342Z,80.66
2018-07-16T04:36:48.276Z,80.47
2018-07-16T04:37:48.287Z,81.04
2018-07-16T04:38:48.253Z,81.14
2018-07-16T04:39:48.319Z,81.04
2018-07-16T04:40:48.207Z,81.14
2018-07-16T04:41:48.629Z,81.14
2018-07-16T04:42:48.174Z,80.80
2018-07-16T04:43:48.173Z,81.24
2018-07-16T04:44:48.144Z,82.14
2018-07-16T04:47:48.446Z,81.95
2018-07-16T04:48:48.079Z,82.04
2018-07-16T04:49:48.077Z,82.14
2018-07-16T04:50:48.051Z,81.76
2018-07-16T04:51:48.113Z,81.95
2018-07-16T04:52:48.019Z,82.32
2018-07-16T04:54:48.509Z,82.28
2018-07-16T04:56:47.961Z,82.94
2018-07-16T04:57:47.955Z,82.75
2018-07-16T04:59:47.904Z,83.37
2018-07-16T05:02:48.162Z,84.03
2018-07-16T05:04:47.830Z,83.46
2018-07-16T05:05:47.810Z,84.32
2018-07-16T05:06:47.845Z,84.42
2018-07-16T05:07:47.774Z,84.13
2018-07-16T05:08:48.187Z,84.03
2018-07-16T05:09:47.865Z,84.13
2018-07-16T05:10:47.742Z,84.46
2018-07-16T05:11:47.716Z,84.46
2018-07-16T05:12:47.846Z,85.89
2018-07-16T05:13:47.762Z,85.99
2018-07-16T05:14:48.074Z,86.28
2018-07-16T05:15:47.660Z,86.94
2018-07-16T05:16:47.710Z,86.90
2018-07-16T05:18:47.728Z,90.34
2018-07-16T05:19:47.646Z,90.82
2018-07-16T05:20:47.926Z,90.44
2018-07-16T05:21:47.628Z,89.58
2018-07-16T05:22:47.554Z,91.15
2018-07-16T05:23:48.091Z,90.77
2018-07-16T05:24:47.785Z,91.25
2018-07-16T05:25:47.572Z,92.97
2018-07-16T05:26:47.501Z,94.31
2018-07-16T05:29:47.889Z,94.60
2018-07-16T05:30:47.531Z,94.69
2018-07-16T05:31:47.482Z,95.27
2018-07-16T05:32:47.549Z,95.84
2018-07-16T05:33:47.491Z,95.79
2018-07-16T05:34:47.641Z,96.56
2018-07-16T05:35:47.359Z,95.31
2018-07-16T05:36:47.969Z,95.51
2018-07-16T05:37:47.330Z,96.08
2018-07-16T05:38:47.383Z,95.89
2018-07-16T05:39:47.313Z,95.22
2018-07-16T05:40:47.311Z,94.45
2018-07-16T05:41:47.398Z,94.35
2018-07-16T05:43:47.557Z,92.35
2018-07-16T05:45:47.233Z,93.49
2018-07-16T05:46:47.364Z,93.44
2018-07-16T05:47:47.246Z,93.54
2018-07-16T05:48:47.203Z,93.06
2018-07-16T05:49:47.223Z,92.58
2018-07-16T05:50:47.514Z,92.68
2018-07-16T05:51:47.144Z,91.63
2018-07-16T05:52:47.127Z,93.06
2018-07-16T05:53:47.335Z,92.97
2018-07-16T05:54:47.222Z,94.69
2018-07-16T05:56:47.466Z,94.84
2018-07-16T05:57:47.136Z,94.07
2018-07-16T05:58:47.117Z,93.78
2018-07-16T06:02:47.647Z,93.68
2018-07-16T06:03:47.183Z,94.35
2018-07-16T06:04:46.969Z,95.84
2018-07-16T06:05:47.075Z,96.37
2018-07-16T06:06:47.051Z,96.70
2018-07-16T06:07:46.925Z,96.80
2018-07-16T06:08:46.985Z,96.03
2018-07-16T06:10:47.234Z,96.80
2018-07-16T06:11:46.880Z,96.61
2018-07-16T06:12:46.858Z,97.47
2018-07-16T06:13:46.858Z,97.47
2018-07-16T06:15:46.870Z,97.66
2018-07-16T06:16:46.848Z,96.99
2018-07-16T06:17:47.098Z,98.62
2018-07-16T06:18:46.876Z,99.15
2018-07-16T06:19:46.766Z,99.99
2018-07-16T06:20:46.763Z,99.99
2018-07-16T06:21:46.796Z,99.99
2018-07-16T06:22:46.736Z,99.99
2018-07-16T06:24:47.002Z,99.63
2018-07-16T06:25:46.699Z,99.99
2018-07-16T06:26:46.703Z,99.99
2018-07-16T06:27:46.758Z,99.99
2018-07-16T06:28:46.679Z,99.99
2018-07-16T06:30:46.934Z,99.99
2018-07-16T06:32:46.672Z,99.78
2018-07-16T06:34:46.626Z,99.99
2018-07-16T06:36:46.983Z,99.99
2018-07-16T06:37:46.537Z,99.99
2018-07-16T06:38:46.520Z,99.99
2018-07-16T06:39:46.627Z,99.99
2018-07-16T06:40:46.861Z,99.99
2018-07-16T06:41:46.499Z,99.99
2018-07-16T06:42:46.774Z,99.99
2018-07-16T06:43:46.471Z,99.99
2018-07-16T06:44:46.451Z,99.99
2018-07-16T06:45:46.443Z,99.99
2018-07-16T06:46:46.479Z,99.99
2018-07-16T06:47:46.484Z,99.99
2018-07-16T06:48:46.697Z,99.99
2018-07-16T06:49:46.395Z,99.99
2018-07-16T06:50:46.373Z,99.99
2018-07-16T06:51:46.401Z,99.99
2018-07-16T06:52:46.403Z,99.99
2018-07-16T06:53:46.368Z,99.99
2018-07-16T06:54:46.666Z,99.99
2018-07-16T06:55:46.394Z,99.99
2018-07-16T06:56:46.305Z,99.99
2018-07-16T06:57:46.416Z,99.99
2018-07-16T06:58:46.330Z,99.99
2018-07-16T06:59:46.388Z,99.99
2018-07-16T07:00:46.250Z,99.99
2018-07-16T07:01:46.544Z,99.99
2018-07-16T07:02:46.230Z,99.99
2018-07-16T07:03:46.221Z,99.99
2018-07-16T07:04:46.414Z,99.99
2018-07-16T07:06:46.187Z,99.99
2018-07-16T07:07:46.472Z,99.99
2018-07-16T07:08:46.161Z,99.99
2018-07-16T07:09:46.149Z,99.99
2018-07-16T07:12:46.857Z,99.99
2018-07-16T07:13:46.098Z,99.99
2018-07-16T07:14:46.136Z,99.99
2018-07-16T07:15:46.079Z,99.99
2018-07-16T07:16:46.832Z,99.99
2018-07-16T07:17:46.050Z,99.99
2018-07-16T07:18:46.119Z,99.99
2018-07-16T07:19:46.786Z,99.99
2018-07-16T07:20:46.418Z,99.99
2018-07-16T07:21:46.274Z,99.99
2018-07-16T07:22:45.993Z,99.99
2018-07-16T07:24:46.431Z,99.99
2018-07-16T07:25:45.966Z,99.99
2018-07-16T07:26:46.252Z,99.99
2018-07-16T07:27:45.957Z,99.99
2018-07-16T07:28:45.946Z,99.99
2018-07-16T07:29:45.913Z,99.99
2018-07-16T07:30:45.969Z,99.99
2018-07-16T07:31:52.609Z,99.99
2018-07-16T07:32:45.889Z,99.99
2018-07-16T07:33:46.251Z,99.99
2018-07-16T07:34:45.861Z,99.99
2018-07-16T07:35:45.969Z,99.99
2018-07-16T07:36:46.072Z,99.99
2018-07-16T07:37:45.826Z,99.99
2018-07-16T07:38:45.818Z,99.99
2018-07-16T07:39:45.811Z,99.99
2018-07-16T07:40:46.100Z,99.99
2018-07-16T07:41:45.787Z,99.99
2018-07-16T07:42:45.821Z,99.99
2018-07-16T07:43:45.768Z,99.99
2018-07-16T07:44:45.758Z,99.99
2018-07-16T07:45:45.742Z,98.54
2018-07-16T07:46:45.737Z,98.63
2018-07-16T07:47:46.084Z,96.80
2018-07-16T07:48:45.764Z,95.64
2018-07-16T07:49:45.719Z,97.23
2018-07-16T07:50:45.689Z,97.62
2018-07-16T07:51:45.685Z,96.84
2018-07-16T07:52:45.676Z,95.73
2018-07-16T07:53:45.986Z,93.51
2018-07-16T07:54:45.802Z,90.99
2018-07-16T07:55:45.676Z,86.93
2018-07-16T07:56:45.652Z,89.54
2018-07-16T07:57:45.639Z,84.94
2018-07-16T07:58:45.622Z,87.36
2018-07-16T07:59:45.954Z,84.46
2018-07-16T08:00:45.671Z,83.05
2018-07-16T08:01:45.650Z,78.99
2018-07-16T08:03:04.851Z,82.76
2018-07-16T08:03:45.569Z,85.08
2018-07-16T08:04:45.612Z,80.24
2018-07-16T08:05:45.850Z,81.60
2018-07-16T08:06:45.584Z,79.85
2018-07-16T08:07:45.531Z,79.57
2018-07-16T08:09:45.510Z,76.76
2018-07-16T08:10:45.589Z,74.92
2018-07-16T08:11:45.792Z,74.92
2018-07-16T08:12:45.540Z,75.15
2018-07-16T08:13:45.567Z,75.73
2018-07-16T08:14:45.471Z,75.54
2018-07-16T08:15:45.478Z,77.28
2018-07-16T08:16:45.453Z,76.31
2018-07-16T08:17:45.805Z,72.96
2018-07-16T08:18:45.550Z,72.77
2018-07-16T08:19:45.453Z,72.80
2018-07-16T08:20:45.429Z,73.35
2018-07-16T08:23:45.702Z,72.41
2018-07-16T08:24:45.448Z,70.28
2018-07-16T08:25:45.400Z,69.31
2018-07-16T08:26:45.372Z,68.30
2018-07-16T08:27:45.365Z,71.41
2018-07-16T08:28:45.362Z,70.37
2018-07-16T08:29:45.653Z,70.86
2018-07-16T08:30:45.406Z,70.67
2018-07-16T08:31:45.369Z,69.60
2018-07-16T08:32:45.329Z,70.70
2018-07-16T08:33:45.382Z,68.54
2018-07-16T08:34:45.329Z,69.31
2018-07-16T08:35:45.613Z,69.31
2018-07-16T08:36:45.351Z,67.95
2018-07-16T08:37:45.291Z,67.21
2018-07-16T08:38:45.303Z,68.15
2018-07-16T08:39:45.304Z,67.99
2018-07-16T08:40:45.729Z,67.99
2018-07-16T08:41:45.279Z,68.99
2018-07-16T08:42:45.618Z,67.63
2018-07-16T08:43:45.287Z,67.54
2018-07-16T08:44:45.260Z,67.79
2018-07-16T08:45:45.278Z,68.47
2018-07-16T08:46:45.293Z,68.02
2018-07-16T08:47:45.233Z,67.44
2018-07-16T08:48:45.288Z,65.89
2018-07-16T08:49:45.632Z,63.46
2018-07-16T08:50:45.224Z,64.33
2018-07-16T08:51:45.251Z,65.05
2018-07-16T08:52:45.643Z,66.40
2018-07-16T08:53:45.459Z,66.11
2018-07-16T08:54:45.245Z,63.39
2018-07-16T08:55:45.534Z,62.32
2018-07-16T08:56:45.412Z,63.59
2018-07-16T08:57:45.192Z,63.78
2018-07-16T08:58:45.182Z,64.26
2018-07-16T08:59:45.221Z,63.71
2018-07-16T09:00:45.233Z,63.98
2018-07-16T09:01:45.200Z,63.62
2018-07-16T09:02:45.515Z,61.29
2018-07-16T09:03:45.223Z,60.93
2018-07-16T09:04:45.246Z,61.12
2018-07-16T09:05:45.171Z,62.29
2018-07-16T09:06:45.238Z,61.90
2018-07-16T09:07:45.164Z,61.71
2018-07-16T09:08:45.157Z,60.61
2018-07-16T09:09:45.437Z,60.05
2018-07-16T09:10:45.221Z,60.44
2018-07-16T09:11:45.278Z,60.05
2018-07-16T09:12:45.192Z,59.11
2018-07-16T09:13:45.177Z,60.05
2018-07-16T09:14:45.135Z,59.99
2018-07-16T09:15:45.413Z,60.38
2018-07-16T09:16:45.135Z,59.50
2018-07-16T09:17:45.107Z,60.31
2018-07-16T09:18:55.517Z,60.68
2018-07-16T09:19:45.108Z,62.29
2018-07-16T09:20:45.098Z,63.59
2018-07-16T09:21:45.917Z,60.00
2018-07-16T09:22:45.089Z,58.64
2018-07-16T09:23:45.093Z,60.31
2018-07-16T09:26:45.429Z,59.08
2018-07-16T09:28:45.422Z,60.67
2018-07-16T09:29:45.084Z,59.21
2018-07-16T09:30:45.375Z,58.50
2018-07-16T09:31:46.317Z,60.22
2018-07-16T09:32:45.206Z,57.50
2018-07-16T09:33:45.124Z,57.53
2018-07-16T09:34:45.441Z,57.95
2018-07-16T09:35:45.053Z,58.40
2018-07-16T09:36:45.056Z,59.50
2018-07-16T09:37:45.306Z,56.10
2018-07-16T09:39:45.181Z,53.69
2018-07-16T09:40:45.432Z,54.64
2018-07-16T09:42:45.058Z,55.64
2018-07-16T09:43:45.044Z,56.57
2018-07-16T09:44:45.133Z,52.87
2018-07-16T09:45:45.096Z,53.52
2018-07-16T09:46:45.338Z,53.26
2018-07-16T09:47:45.043Z,50.92
2018-07-16T09:48:45.030Z,52.94
2018-07-16T09:49:45.028Z,53.36
2018-07-16T09:50:45.083Z,54.13
2018-07-16T09:51:45.080Z,52.67
2018-07-16T09:52:45.325Z,52.19
2018-07-16T09:53:45.124Z,51.29
2018-07-16T09:54:45.032Z,51.36
2018-07-16T09:55:45.033Z,52.86
2018-07-16T09:56:45.031Z,53.16
2018-07-16T09:57:45.082Z,52.98
2018-07-16T09:58:45.325Z,53.20
2018-07-16T09:59:45.261Z,53.04
2018-07-16T10:00:45.022Z,52.16
2018-07-16T10:02:45.017Z,51.29
2018-07-16T10:03:45.100Z,51.29
2018-07-16T10:04:45.329Z,52.48
2018-07-16T10:05:45.131Z,52.97
2018-07-16T10:06:45.014Z,53.41
2018-07-16T10:08:45.023Z,51.29
2018-07-16T10:09:45.071Z,51.75
2018-07-16T10:11:45.318Z,52.07
2018-07-16T10:12:45.023Z,48.88
2018-07-16T10:13:45.014Z,47.90
2018-07-16T10:14:45.023Z,50.16
2018-07-16T10:15:45.087Z,49.90
2018-07-16T10:16:45.023Z,49.44
2018-07-16T10:18:45.326Z,47.85
2018-07-16T10:19:45.017Z,49.33
2018-07-16T10:20:45.084Z,45.68
2018-07-16T10:21:45.080Z,47.44
2018-07-16T10:22:45.046Z,49.00
2018-07-16T10:23:45.038Z,49.56
2018-07-16T10:24:45.341Z,49.76
2018-07-16T10:25:45.155Z,50.14
2018-07-16T10:26:45.082Z,50.29
2018-07-16T10:27:45.120Z,49.16
2018-07-16T10:28:45.089Z,47.33
2018-07-16T10:29:45.174Z,46.45
2018-07-16T10:30:45.342Z,45.40
2018-07-16T10:31:45.063Z,44.71
2018-07-16T10:33:45.200Z,44.30
2018-07-16T10:34:45.086Z,42.83
2018-07-16T10:35:45.099Z,44.49
2018-07-16T10:38:45.462Z,45.86
2018-07-16T10:39:45.113Z,43.71
2018-07-16T10:40:45.124Z,44.42
2018-07-16T10:42:45.124Z,44.34
2018-07-16T10:43:45.069Z,41.09
2018-07-16T10:44:45.620Z,41.46
2018-07-16T10:45:45.333Z,41.76
2018-07-16T10:46:46.770Z,42.64
2018-07-16T10:47:45.269Z,42.35
2018-07-16T10:48:45.213Z,41.62
2018-07-16T10:49:45.369Z,41.31
2018-07-16T10:50:45.300Z,42.79
2018-07-16T10:51:45.654Z,47.50
2018-07-16T10:52:47.062Z,43.81
2018-07-16T10:53:45.242Z,43.93
2018-07-16T10:54:45.175Z,44.34
2018-07-16T10:55:45.241Z,42.80
2018-07-16T10:57:46.677Z,42.78
2018-07-16T10:58:45.212Z,41.09
2018-07-16T10:59:45.644Z,42.76
2018-07-16T11:00:45.402Z,41.19
2018-07-16T11:02:45.195Z,41.49
2018-07-16T11:04:45.621Z,42.38
2018-07-16T11:05:45.244Z,40.84
2018-07-16T11:06:45.657Z,39.64
2018-07-16T11:07:45.479Z,39.72
2018-07-16T11:08:45.235Z,42.46
2018-07-16T11:09:46.274Z,42.56
2018-07-16T11:10:45.523Z,42.78
2018-07-16T11:11:45.253Z,41.23
2018-07-16T11:12:45.296Z,39.98
2018-07-16T11:13:45.204Z,40.95
2018-07-16T11:14:45.252Z,39.51
2018-07-16T11:15:45.282Z,40.47
2018-07-16T11:17:45.325Z,40.00
2018-07-16T11:18:45.356Z,41.49
2018-07-16T11:19:45.207Z,39.41
2018-07-16T11:20:45.279Z,41.11
2018-07-16T11:21:45.277Z,43.63
2018-07-16T11:22:45.654Z,43.52
2018-07-16T11:23:45.331Z,43.52
2018-07-16T11:24:45.311Z,45.28
2018-07-16T11:25:45.311Z,42.95
2018-07-16T11:26:45.209Z,42.58
2018-07-16T11:27:45.254Z,43.31
2018-07-16T11:28:45.976Z,41.66
2018-07-16T11:29:45.327Z,40.09
2018-07-16T11:32:45.245Z,40.11
2018-07-16T11:33:45.267Z,40.90
2018-07-16T11:34:45.308Z,40.21
2018-07-16T11:35:45.710Z,41.51
2018-07-16T11:36:45.334Z,40.43
2018-07-16T11:37:45.254Z,40.03
2018-07-16T11:38:45.265Z,39.72
2018-07-16T11:39:45.323Z,40.92
2018-07-16T11:40:45.194Z,39.64
2018-07-16T11:41:45.595Z,39.74
2018-07-16T11:43:46.174Z,37.78
2018-07-16T11:44:45.315Z,38.85
2018-07-16T11:45:45.280Z,40.16
2018-07-16T11:46:45.209Z,37.46
2018-07-16T11:48:45.519Z,40.41
2018-07-16T11:49:45.227Z,41.71
2018-07-16T11:50:45.485Z,41.21
2018-07-16T11:52:45.360Z,36.30
2018-07-16T11:53:45.520Z,36.78
2018-07-16T11:54:45.794Z,38.84
2018-07-16T11:55:45.341Z,38.51
2018-07-16T11:56:45.261Z,39.51
2018-07-16T11:57:45.412Z,36.65
2018-07-16T11:58:45.410Z,38.67
2018-07-16T12:00:45.731Z,44.40
2018-07-16T12:01:45.348Z,41.68
2018-07-16T12:02:45.389Z,41.03
2018-07-16T12:03:45.410Z,40.17
2018-07-16T12:04:45.352Z,38.25
2018-07-16T12:05:45.371Z,40.23
2018-07-16T12:06:45.721Z,40.64
2018-07-16T12:07:45.357Z,39.35
2018-07-16T12:08:45.335Z,38.85
2018-07-16T12:09:45.372Z,38.25
2018-07-16T12:10:45.358Z,37.68
2018-07-16T12:11:45.296Z,39.74
2018-07-16T12:12:45.652Z,38.78
2018-07-16T12:13:45.359Z,39.64
2018-07-16T12:14:45.336Z,39.61
2018-07-16T12:16:45.327Z,39.86
2018-07-16T12:17:45.561Z,40.90
2018-07-16T12:18:45.651Z,41.46
2018-07-16T12:19:45.323Z,41.70
2018-07-16T12:20:45.331Z,38.29
2018-07-16T12:21:45.410Z,38.70
2018-07-16T12:22:45.383Z,38.04
2018-07-16T12:23:45.343Z,36.96
2018-07-16T12:24:45.700Z,36.76
2018-07-16T12:25:45.357Z,36.25
2018-07-16T12:27:45.429Z,38.92
2018-07-16T12:28:45.376Z,38.62
2018-07-16T12:29:45.362Z,40.11
2018-07-16T12:31:45.391Z,38.78
2018-07-16T12:32:45.451Z,37.50
2018-07-16T12:33:45.421Z,37.62
2018-07-16T12:34:45.486Z,38.39
2018-07-16T12:35:45.384Z,37.50
2018-07-16T12:36:45.698Z,38.68
2018-07-16T12:37:45.387Z,35.70
2018-07-16T12:38:45.401Z,38.06
2018-07-16T12:39:45.445Z,37.68
2018-07-16T12:40:45.431Z,39.06
2018-07-16T12:41:45.490Z,38.48
2018-07-16T12:42:45.765Z,38.62
2018-07-16T12:43:45.529Z,37.36
2018-07-16T12:44:45.420Z,38.46
2018-07-16T12:45:45.931Z,35.61
2018-07-16T12:46:45.519Z,36.49
2018-07-16T12:47:45.421Z,36.99
2018-07-16T12:48:46.919Z,34.23
2018-07-16T12:49:45.524Z,34.43
2018-07-16T12:51:45.505Z,35.69
2018-07-16T12:53:45.717Z,38.18
2018-07-16T12:54:45.774Z,35.82
2018-07-16T12:55:45.515Z,34.23
2018-07-16T12:56:45.564Z,33.72
2018-07-16T12:57:45.551Z,35.39
2018-07-16T12:58:45.532Z,39.56
2018-07-16T12:59:45.481Z,36.71
2018-07-16T13:00:45.795Z,34.75
2018-07-16T13:02:45.500Z,33.44
2018-07-16T13:04:45.569Z,33.25
2018-07-16T13:05:45.522Z,35.33
2018-07-16T13:06:45.893Z,33.25
2018-07-16T13:07:45.594Z,33.44
2018-07-16T13:08:45.535Z,34.22
2018-07-16T13:09:45.598Z,34.61
2018-07-16T13:10:45.619Z,35.61
2018-07-16T13:11:45.589Z,36.90
2018-07-16T13:12:45.863Z,35.43
2018-07-16T13:13:45.743Z,34.03
2018-07-16T13:14:45.578Z,33.84
2018-07-16T13:15:45.602Z,34.03
2018-07-16T13:16:45.709Z,33.94
2018-07-16T13:18:45.996Z,33.74
2018-07-16T13:19:45.793Z,32.95
2018-07-16T13:20:45.720Z,35.11
2018-07-16T13:21:45.653Z,33.74
2018-07-16T13:22:45.675Z,34.01
2018-07-16T13:23:45.787Z,33.12
2018-07-16T13:24:46.043Z,34.30
2018-07-16T13:26:45.651Z,33.79
2018-07-16T13:27:45.703Z,35.67
2018-07-16T13:28:45.703Z,34.78
2018-07-16T13:29:45.801Z,33.91
2018-07-16T13:30:46.048Z,34.11
2018-07-16T13:31:45.772Z,34.61
2018-07-16T13:32:45.768Z,33.31
2018-07-16T13:33:45.781Z,34.51
2018-07-16T13:34:45.805Z,36.79
2018-07-16T13:35:45.784Z,33.05
2018-07-16T13:36:46.891Z,34.22
2018-07-16T13:37:45.823Z,34.59
2018-07-16T13:38:45.850Z,34.78
2018-07-16T13:39:45.719Z,34.90
2018-07-16T13:40:45.780Z,34.80
2018-07-16T13:41:45.728Z,36.10
2018-07-16T13:42:46.038Z,36.41
2018-07-16T13:45:45.811Z,33.26
2018-07-16T13:46:45.863Z,35.64
2018-07-16T13:47:45.879Z,32.87
2018-07-16T13:48:46.143Z,33.46
2018-07-16T13:49:45.781Z,33.54
2018-07-16T13:50:45.799Z,34.13
2018-07-16T13:51:45.788Z,34.92
2018-07-16T13:52:45.918Z,35.53
2018-07-16T13:53:45.804Z,38.42
2018-07-16T13:54:46.109Z,39.25
2018-07-16T13:55:45.846Z,38.88
2018-07-16T13:56:45.822Z,34.87
2018-07-16T13:58:45.884Z,36.47
2018-07-16T13:59:45.854Z,34.63
2018-07-16T14:00:46.408Z,37.99
2018-07-16T14:01:45.888Z,34.54
2018-07-16T14:02:45.941Z,35.21
2018-07-16T14:03:45.944Z,34.23
2018-07-16T14:04:45.934Z,37.03
2018-07-16T14:05:45.906Z,38.74
2018-07-16T14:06:46.184Z,38.98
2018-07-16T14:07:45.903Z,39.62
2018-07-16T14:08:45.909Z,41.03
2018-07-16T14:09:45.901Z,41.08
2018-07-16T14:11:46.136Z,36.54
2018-07-16T14:13:46.213Z,37.74
2018-07-16T14:14:46.067Z,38.88
2018-07-16T14:15:45.963Z,39.92
2018-07-16T14:16:45.933Z,41.46
2018-07-16T14:17:45.977Z,41.91
2018-07-16T14:18:45.938Z,40.33
2018-07-16T14:19:46.296Z,41.56
2018-07-16T14:20:45.947Z,41.36
2018-07-16T14:22:46.070Z,45.22
2018-07-16T14:24:46.051Z,45.22
2018-07-16T14:25:47.003Z,44.83
2018-07-16T14:26:45.955Z,44.87
2018-07-16T14:27:46.019Z,41.83
2018-07-16T14:28:45.958Z,40.92
2018-07-16T14:29:45.954Z,38.51
2018-07-16T14:31:46.356Z,38.78
2018-07-16T14:32:46.076Z,38.88
2018-07-16T14:33:45.952Z,36.93
2018-07-16T14:34:46.062Z,38.21
2018-07-16T14:35:46.064Z,33.87
2018-07-16T14:36:45.999Z,35.68
2018-07-16T14:37:46.379Z,39.61
2018-07-16T14:38:46.479Z,37.37
2018-07-16T14:39:46.110Z,37.35
2018-07-16T14:40:46.052Z,40.31
2018-07-16T14:41:46.076Z,41.02
2018-07-16T14:42:46.076Z,36.91
2018-07-16T14:44:46.388Z,38.09
2018-07-16T14:45:46.045Z,35.55
2018-07-16T14:47:45.983Z,34.69
2018-07-16T14:48:45.986Z,34.89
2018-07-16T14:49:46.034Z,36.57
2018-07-16T14:50:46.355Z,37.26
2018-07-16T14:51:46.007Z,34.89
2018-07-16T14:52:46.033Z,35.38
2018-07-16T14:53:45.996Z,36.46
2018-07-16T14:54:46.010Z,34.47
2018-07-16T14:55:46.013Z,36.36
2018-07-16T14:56:46.364Z,35.95
2018-07-16T14:57:46.020Z,37.63
2018-07-16T14:58:46.026Z,37.52
2018-07-16T14:59:46.019Z,35.57